North River — WYR2549 — position and weather

sailwx.info

Track history (hours):
 
Tides and Currents Weather Stations Pressure Air Temp Water Temp Dewpoint Dewpoint Depression Visibility Wind Speed Wind Dir Waves Ship Positions

North River

Owner: CITY OF NEW YORK, Brooklyn, NY. More information available from US FCC via Universal Licensing System and Coast Guard Vessel Documentation Center.

Last reported at 2017-Sep-19 23:13 UTC. Time now 2017-Sep-22 06:27 UTC.
Position N 40°47' W 073°54'.

Length 78 m.

Type: Tanker. MMSI: 367074110.

Date/timePositionNaut miles runAvg speedWind from/ knotsBaromVisibWave heightAir tempDewpointWater temp
2017-Sep-19 23:13N 40°47' W 073°54'0 2.1
2017-Sep-19 22:59N 40°47' W 073°54'1 0.6
2017-Sep-19 20:19N 40°47' W 073°55'3 8.8
2017-Sep-19 20:00N 40°45' W 073°58'4 7.7
2017-Sep-19 19:31N 40°42' W 074°01'713.7
2017-Sep-19 19:00N 40°49' W 073°58'1 2.3
2017-Sep-19 18:30N 40°49' W 073°58'0 0.0
2017-Sep-19 18:00N 40°49' W 073°58'0 0.0
2017-Sep-19 17:30N 40°49' W 073°58'0 0.0
2017-Sep-19 17:00N 40°49' W 073°58'5 9.3
2017-Sep-19 16:30N 40°45' W 074°01'3 6.1
2017-Sep-19 16:00N 40°43' W 073°58'611.6
2017-Sep-19 15:30N 40°48' W 073°54'1 2.3
2017-Sep-19 15:00N 40°47' W 073°54'0 0.0
2017-Sep-18 21:12N 40°47' W 073°54'1 2.5
2017-Sep-18 20:59N 40°47' W 073°54'1 0.3
2017-Sep-18 18:33N 40°48' W 073°53'0 1.7
2017-Sep-18 18:30N 40°48' W 073°53'4 7.1
2017-Sep-18 17:59N 40°46' W 073°57'3 5.7
2017-Sep-18 17:31N 40°43' W 073°58'0 0.1
2017-Sep-18 17:01N 40°43' W 073°58'0 0.0
2017-Sep-18 16:31N 40°43' W 073°58'2 4.4
2017-Sep-18 16:00N 40°42' W 074°01'4 8.2
2017-Sep-18 15:30N 40°46' W 074°01'4 7.8
2017-Sep-18 15:00N 40°49' W 073°58'0 0.7
2017-Sep-18 14:30N 40°50' W 073°58'0 0.0
2017-Sep-18 14:00N 40°50' W 073°58'0 0.0
2017-Sep-18 13:30N 40°50' W 073°58'0 0.2
2017-Sep-18 13:00N 40°50' W 073°58'612.0
2017-Sep-18 12:30N 40°44' W 074°01'2 4.5
2017-Sep-18 12:00N 40°44' W 073°58'5 9.3
2017-Sep-18 11:30N 40°48' W 073°54'1 2.3
2017-Sep-18 11:00N 40°47' W 073°54'0 0.0
2017-Sep-18 10:30N 40°47' W 073°54'0 0.0
2017-Sep-17 20:07N 40°47' W 073°54'0 0.6
2017-Sep-17 19:58N 40°47' W 073°53'2 0.7
2017-Sep-17 17:01N 40°47' W 073°56'1 7.9
2017-Sep-17 16:53N 40°46' W 073°57'3 8.6
2017-Sep-17 16:31N 40°43' W 073°58'3 5.7
2017-Sep-17 16:00N 40°45' W 074°01'510.5
2017-Sep-17 15:30N 40°49' W 073°58'0 0.0
2017-Sep-17 15:00N 40°49' W 073°58'0 0.0
2017-Sep-17 14:30N 40°49' W 073°58'0 0.0
2017-Sep-17 14:00N 40°49' W 073°58'0 0.0
2017-Sep-17 13:30N 40°49' W 073°58'511.2
2017-Sep-17 13:01N 40°45' W 074°01'2 4.5
2017-Sep-17 12:30N 40°44' W 073°58'5 8.0
2017-Sep-17 11:56N 40°47' W 073°54'0 0.0
2017-Sep-17 11:30N 40°47' W 073°54'0 0.0
2017-Sep-16 18:58N 40°47' W 073°53'2 0.6
2017-Sep-16 16:31N 40°47' W 073°55'0 8.3
2017-Sep-16 16:30N 40°47' W 073°56'4 8.4
2017-Sep-16 16:00N 40°43' W 073°58'3 5.1
2017-Sep-16 15:30N 40°45' W 074°01'611.1
2017-Sep-16 15:00N 40°49' W 073°58'0 0.0
2017-Sep-16 14:30N 40°49' W 073°58'0 0.0
2017-Sep-16 14:00N 40°49' W 073°58'0 0.0
2017-Sep-16 13:29N 40°49' W 073°58'2 3.8
2017-Sep-16 13:00N 40°48' W 073°59'612.0
2017-Sep-16 12:30N 40°42' W 074°01'611.5
2017-Sep-16 12:00N 40°47' W 073°56'2 4.1
2017-Sep-16 11:29N 40°47' W 073°54'0 0.0
2017-Sep-15 19:45N 40°47' W 073°53'2 0.7
2017-Sep-15 16:59N 40°47' W 073°56'511.2
2017-Sep-15 16:30N 40°42' W 073°60'4 9.0
2017-Sep-15 16:00N 40°47' W 073°60'3 6.3
2017-Sep-15 15:30N 40°49' W 073°58'0 0.0
2017-Sep-15 15:00N 40°49' W 073°58'0 0.0
2017-Sep-15 14:30N 40°49' W 073°58'0 0.0
2017-Sep-15 14:00N 40°49' W 073°58'2 3.9
2017-Sep-15 13:30N 40°48' W 073°59'510.9
2017-Sep-15 13:00N 40°43' W 074°01'610.8
2017-Sep-15 12:29N 40°47' W 073°56'2 4.2
2017-Sep-15 12:00N 40°47' W 073°54'0 0.0
2017-Sep-15 11:30N 40°47' W 073°54'  
2017-Sep-10 19:34N 40°47' W 073°54'0 6.8
2017-Sep-10 19:30N 40°48' W 073°54'1 2.3
2017-Sep-10 18:57N 40°47' W 073°55'0 0.0
2017-Sep-10 18:25N 40°47' W 073°55'0 0.0
2017-Sep-10 17:56N 40°47' W 073°55'0 0.0
2017-Sep-10 17:27N 40°47' W 073°55'1 1.3
2017-Sep-10 16:55N 40°47' W 073°56'512.0
2017-Sep-10 16:30N 40°42' W 073°59'3 6.5
2017-Sep-10 16:00N 40°45' W 074°01'5 9.3
2017-Sep-10 15:30N 40°49' W 073°58'0 0.5
2017-Sep-10 15:00N 40°49' W 073°58'0 0.0
2017-Sep-10 14:00N 40°49' W 073°58'0 0.0
2017-Sep-10 13:29N 40°49' W 073°58'3 5.6
2017-Sep-10 13:00N 40°47' W 073°59'510.8
2017-Sep-10 12:30N 40°42' W 074°01'510.3
2017-Sep-10 12:00N 40°46' W 073°57'  
Track history (hours):
 
Tides and Currents Weather Stations Pressure Air Temp Water Temp Dewpoint Dewpoint Depression Visibility Wind Speed Wind Dir Waves Ship Positions

North River

Owner: CITY OF NEW YORK, Brooklyn, NY. More information available from US FCC via Universal Licensing System and Coast Guard Vessel Documentation Center.

Last reported at 2017-Sep-19 23:13 UTC. Time now 2017-Sep-22 06:27 UTC.
Position N 40°47' W 073°54'.

Length 78 m.

Type: Tanker. MMSI: 367074110.

Date/timePositionNaut miles runAvg speedWind from/ knotsBaromVisibWave heightAir tempDewpointWater temp
2017-Sep-19 23:13N 40°47' W 073°54'0 2.1
2017-Sep-19 22:59N 40°47' W 073°54'1 0.6
2017-Sep-19 20:19N 40°47' W 073°55'3 8.8
2017-Sep-19 20:00N 40°45' W 073°58'4 7.7
2017-Sep-19 19:31N 40°42' W 074°01'713.7
2017-Sep-19 19:00N 40°49' W 073°58'1 2.3
2017-Sep-19 18:30N 40°49' W 073°58'0 0.0
2017-Sep-19 18:00N 40°49' W 073°58'0 0.0
2017-Sep-19 17:30N 40°49' W 073°58'0 0.0
2017-Sep-19 17:00N 40°49' W 073°58'5 9.3
2017-Sep-19 16:30N 40°45' W 074°01'3 6.1
2017-Sep-19 16:00N 40°43' W 073°58'611.6
2017-Sep-19 15:30N 40°48' W 073°54'1 2.3
2017-Sep-19 15:00N 40°47' W 073°54'0 0.0
2017-Sep-18 21:12N 40°47' W 073°54'1 2.5
2017-Sep-18 20:59N 40°47' W 073°54'1 0.3
2017-Sep-18 18:33N 40°48' W 073°53'0 1.7
2017-Sep-18 18:30N 40°48' W 073°53'4 7.1
2017-Sep-18 17:59N 40°46' W 073°57'3 5.7
2017-Sep-18 17:31N 40°43' W 073°58'0 0.1
2017-Sep-18 17:01N 40°43' W 073°58'0 0.0
2017-Sep-18 16:31N 40°43' W 073°58'2 4.4
2017-Sep-18 16:00N 40°42' W 074°01'4 8.2
2017-Sep-18 15:30N 40°46' W 074°01'4 7.8
2017-Sep-18 15:00N 40°49' W 073°58'0 0.7
2017-Sep-18 14:30N 40°50' W 073°58'0 0.0
2017-Sep-18 14:00N 40°50' W 073°58'0 0.0
2017-Sep-18 13:30N 40°50' W 073°58'0 0.2
2017-Sep-18 13:00N 40°50' W 073°58'612.0
2017-Sep-18 12:30N 40°44' W 074°01'2 4.5
2017-Sep-18 12:00N 40°44' W 073°58'5 9.3
2017-Sep-18 11:30N 40°48' W 073°54'1 2.3
2017-Sep-18 11:00N 40°47' W 073°54'0 0.0
2017-Sep-18 10:30N 40°47' W 073°54'0 0.0
2017-Sep-17 20:07N 40°47' W 073°54'0 0.6
2017-Sep-17 19:58N 40°47' W 073°53'2 0.7
2017-Sep-17 17:01N 40°47' W 073°56'1 7.9
2017-Sep-17 16:53N 40°46' W 073°57'3 8.6
2017-Sep-17 16:31N 40°43' W 073°58'3 5.7
2017-Sep-17 16:00N 40°45' W 074°01'510.5
2017-Sep-17 15:30N 40°49' W 073°58'0 0.0
2017-Sep-17 15:00N 40°49' W 073°58'0 0.0
2017-Sep-17 14:30N 40°49' W 073°58'0 0.0
2017-Sep-17 14:00N 40°49' W 073°58'0 0.0
2017-Sep-17 13:30N 40°49' W 073°58'511.2
2017-Sep-17 13:01N 40°45' W 074°01'2 4.5
2017-Sep-17 12:30N 40°44' W 073°58'5 8.0
2017-Sep-17 11:56N 40°47' W 073°54'0 0.0
2017-Sep-17 11:30N 40°47' W 073°54'0 0.0
2017-Sep-16 18:58N 40°47' W 073°53'2 0.6
2017-Sep-16 16:31N 40°47' W 073°55'0 8.3
2017-Sep-16 16:30N 40°47' W 073°56'4 8.4
2017-Sep-16 16:00N 40°43' W 073°58'3 5.1
2017-Sep-16 15:30N 40°45' W 074°01'611.1
2017-Sep-16 15:00N 40°49' W 073°58'0 0.0
2017-Sep-16 14:30N 40°49' W 073°58'0 0.0
2017-Sep-16 14:00N 40°49' W 073°58'0 0.0
2017-Sep-16 13:29N 40°49' W 073°58'2 3.8
2017-Sep-16 13:00N 40°48' W 073°59'612.0
2017-Sep-16 12:30N 40°42' W 074°01'611.5
2017-Sep-16 12:00N 40°47' W 073°56'2 4.1
2017-Sep-16 11:29N 40°47' W 073°54'0 0.0
2017-Sep-15 19:45N 40°47' W 073°53'2 0.7
2017-Sep-15 16:59N 40°47' W 073°56'511.2
2017-Sep-15 16:30N 40°42' W 073°60'4 9.0
2017-Sep-15 16:00N 40°47' W 073°60'3 6.3
2017-Sep-15 15:30N 40°49' W 073°58'0 0.0
2017-Sep-15 15:00N 40°49' W 073°58'0 0.0
2017-Sep-15 14:30N 40°49' W 073°58'0 0.0
2017-Sep-15 14:00N 40°49' W 073°58'2 3.9
2017-Sep-15 13:30N 40°48' W 073°59'510.9
2017-Sep-15 13:00N 40°43' W 074°01'610.8
2017-Sep-15 12:29N 40°47' W 073°56'2 4.2
2017-Sep-15 12:00N 40°47' W 073°54'0 0.0
2017-Sep-15 11:30N 40°47' W 073°54'  
2017-Sep-10 19:34N 40°47' W 073°54'0 6.8
2017-Sep-10 19:30N 40°48' W 073°54'1 2.3
2017-Sep-10 18:57N 40°47' W 073°55'0 0.0
2017-Sep-10 18:25N 40°47' W 073°55'0 0.0
2017-Sep-10 17:56N 40°47' W 073°55'0 0.0
2017-Sep-10 17:27N 40°47' W 073°55'1 1.3
2017-Sep-10 16:55N 40°47' W 073°56'512.0
2017-Sep-10 16:30N 40°42' W 073°59'3 6.5
2017-Sep-10 16:00N 40°45' W 074°01'5 9.3
2017-Sep-10 15:30N 40°49' W 073°58'0 0.5
2017-Sep-10 15:00N 40°49' W 073°58'0 0.0
2017-Sep-10 14:00N 40°49' W 073°58'0 0.0
2017-Sep-10 13:29N 40°49' W 073°58'3 5.6
2017-Sep-10 13:00N 40°47' W 073°59'510.8
2017-Sep-10 12:30N 40°42' W 074°01'510.3
2017-Sep-10 12:00N 40°46' W 073°57'  

Dump ship's entire track history